createdAt,value
2023-04-05T00:02:18.711Z,48.01
2023-04-05T00:04:50.609Z,47.19
2023-04-05T00:07:19.201Z,47.24
2023-04-05T00:09:46.530Z,47.08
2023-04-05T00:12:13.524Z,47.33
2023-04-05T00:14:40.821Z,47.53
2023-04-05T00:17:09.483Z,47.99
2023-04-05T00:19:39.215Z,48.07
2023-04-05T00:22:06.049Z,48.23
2023-04-05T00:24:33.971Z,48.00
2023-04-05T00:27:01.219Z,48.20
2023-04-05T00:29:28.485Z,48.03
2023-04-05T00:31:56.567Z,48.25
2023-04-05T00:34:23.465Z,48.67
2023-04-05T00:36:50.499Z,48.75
2023-04-05T00:39:17.472Z,48.81
2023-04-05T00:41:46.395Z,49.30
2023-04-05T00:44:15.012Z,49.69
2023-04-05T00:46:42.218Z,49.21
2023-04-05T00:49:09.568Z,49.12
2023-04-05T00:51:38.039Z,48.94
2023-04-05T00:54:05.604Z,49.71
2023-04-05T00:56:32.923Z,50.03
2023-04-05T00:58:59.727Z,50.38
2023-04-05T01:01:28.011Z,49.93
2023-04-05T01:04:02.972Z,49.68
2023-04-05T01:06:52.499Z,49.74
2023-04-05T01:09:47.270Z,50.89
2023-04-05T01:12:17.988Z,51.05
2023-04-05T01:14:50.211Z,49.89
2023-04-05T01:17:28.263Z,50.91
2023-04-05T01:19:58.985Z,50.89
2023-04-05T01:22:38.030Z,50.25
2023-04-05T01:25:39.072Z,50.14
2023-04-05T01:28:43.444Z,50.24
2023-04-05T01:31:16.373Z,49.91
2023-04-05T01:34:08.487Z,49.85
2023-04-05T01:36:45.386Z,50.33
2023-04-05T01:39:15.272Z,51.10
2023-04-05T01:41:43.292Z,50.94
2023-04-05T01:44:10.056Z,51.71
2023-04-05T01:46:36.862Z,52.32
2023-04-05T01:49:04.340Z,51.40
2023-04-05T01:51:32.283Z,52.14
2023-04-05T01:54:00.302Z,51.65
2023-04-05T01:56:27.383Z,51.99
2023-04-05T01:58:54.155Z,51.69
2023-04-05T02:01:21.082Z,51.75
2023-04-05T02:03:47.946Z,51.66
2023-04-05T02:06:14.683Z,51.67
2023-04-05T02:08:41.384Z,50.53
2023-04-05T02:11:08.165Z,51.00
2023-04-05T02:13:34.947Z,51.68
2023-04-05T02:16:01.742Z,51.37
2023-04-05T02:18:31.893Z,51.97
2023-04-05T02:21:04.664Z,51.45
2023-04-05T02:23:32.658Z,51.10
2023-04-05T02:25:59.601Z,50.81
2023-04-05T02:28:26.887Z,50.67
2023-04-05T02:30:54.542Z,50.68
2023-04-05T02:33:22.834Z,51.12
2023-04-05T02:35:52.087Z,51.28
2023-04-05T02:38:19.286Z,51.84
2023-04-05T02:40:48.784Z,52.90
2023-04-05T02:43:15.496Z,52.46
2023-04-05T02:45:42.245Z,52.17
2023-04-05T02:48:09.189Z,51.96
2023-04-05T02:50:36.011Z,52.55
2023-04-05T02:53:02.998Z,51.36
2023-04-05T02:55:31.043Z,51.35
2023-04-05T02:58:02.868Z,50.90
2023-04-05T03:00:42.430Z,51.55
2023-04-05T03:03:10.519Z,52.97
2023-04-05T03:05:43.380Z,52.24
2023-04-05T03:08:19.500Z,53.07
2023-04-05T03:10:56.878Z,52.02
2023-04-05T03:13:23.634Z,51.97
2023-04-05T03:15:54.191Z,52.46
2023-04-05T03:18:21.251Z,51.67
2023-04-05T03:20:50.290Z,52.34
2023-04-05T03:23:20.739Z,51.25
2023-04-05T03:26:03.251Z,51.32
2023-04-05T03:28:34.524Z,51.13
2023-04-05T03:31:05.192Z,50.78
2023-04-05T03:33:32.701Z,51.27
2023-04-05T03:35:59.802Z,51.25
2023-04-05T03:38:28.993Z,52.28
2023-04-05T03:41:08.561Z,52.30
2023-04-05T03:43:36.452Z,52.40
2023-04-05T03:46:03.383Z,52.63
2023-04-05T03:48:30.507Z,52.70
2023-04-05T03:50:57.302Z,52.65
2023-04-05T03:53:24.102Z,52.15
2023-04-05T03:55:55.730Z,52.13
2023-04-05T03:58:37.554Z,52.05
2023-04-05T04:01:04.480Z,52.32
2023-04-05T04:03:31.656Z,52.56
2023-04-05T04:06:00.163Z,51.92
2023-04-05T04:08:28.160Z,51.97
2023-04-05T04:11:01.516Z,51.87
2023-04-05T04:13:32.426Z,52.25
2023-04-05T04:16:04.064Z,52.81
2023-04-05T04:18:54.339Z,52.35
2023-04-05T04:21:52.384Z,52.57
2023-04-05T04:24:53.528Z,53.35
2023-04-05T04:27:50.595Z,53.39
2023-04-05T04:30:37.328Z,52.83
2023-04-05T04:33:13.515Z,52.39
2023-04-05T04:36:07.870Z,52.77
2023-04-05T04:38:54.755Z,52.57
2023-04-05T04:41:47.056Z,52.62
2023-04-05T04:44:46.164Z,53.39
2023-04-05T04:47:21.832Z,53.39
2023-04-05T04:50:10.404Z,53.52
2023-04-05T04:52:38.855Z,53.18
2023-04-05T04:55:08.289Z,53.81
2023-04-05T04:57:35.480Z,53.81
2023-04-05T05:00:08.022Z,54.18
2023-04-05T05:02:34.820Z,53.87
2023-04-05T05:05:01.555Z,53.91
2023-04-05T05:07:28.861Z,53.59
2023-04-05T05:09:55.806Z,53.41
2023-04-05T05:12:23.524Z,54.30
2023-04-05T05:14:50.308Z,54.18
2023-04-05T05:17:17.105Z,53.32
2023-04-05T05:19:43.860Z,53.87
2023-04-05T05:22:10.801Z,54.69
2023-04-05T05:24:37.576Z,53.94
2023-04-05T05:27:04.679Z,54.13
2023-04-05T05:29:32.650Z,53.97
2023-04-05T05:31:59.428Z,54.61
2023-04-05T05:34:26.536Z,54.14
2023-04-05T05:36:56.493Z,54.30
2023-04-05T05:39:23.606Z,53.33
2023-04-05T05:41:50.504Z,53.82
2023-04-05T05:44:17.344Z,53.06
2023-04-05T05:46:44.099Z,51.36
2023-04-05T05:49:11.424Z,50.44
2023-04-05T05:51:38.170Z,49.32
2023-04-05T05:54:04.972Z,48.28
2023-04-05T05:56:31.724Z,49.03
2023-04-05T05:58:59.540Z,49.04
2023-04-05T06:01:28.105Z,49.91
2023-04-05T06:03:55.736Z,50.36
2023-04-05T06:06:23.233Z,50.30
2023-04-05T06:08:51.384Z,50.87
2023-04-05T06:11:22.947Z,50.57
2023-04-05T06:13:52.589Z,50.27
2023-04-05T06:16:19.572Z,50.00
2023-04-05T06:18:46.527Z,49.45
2023-04-05T06:21:14.301Z,48.57
2023-04-05T06:23:42.141Z,46.20
2023-04-05T06:26:09.383Z,44.31
2023-04-05T06:28:39.219Z,42.69
2023-04-05T06:31:06.015Z,40.87
2023-04-05T06:33:32.710Z,37.22
2023-04-05T06:35:59.493Z,34.98
2023-04-05T06:38:26.228Z,32.61
2023-04-05T06:40:52.996Z,30.88
2023-04-05T06:43:19.781Z,29.21
2023-04-05T06:45:46.534Z,27.77
2023-04-05T06:48:13.416Z,27.44
2023-04-05T06:50:41.046Z,26.98
2023-04-05T06:53:08.028Z,25.89
2023-04-05T06:55:34.814Z,25.25
2023-04-05T06:58:01.646Z,25.05
2023-04-05T07:00:28.407Z,24.90
2023-04-05T07:02:55.288Z,24.23
2023-04-05T07:05:22.103Z,23.62
2023-04-05T07:07:48.900Z,24.64
2023-04-05T07:10:16.348Z,24.81
2023-04-05T07:12:43.064Z,24.36
2023-04-05T07:15:10.451Z,24.14
2023-04-05T07:17:37.267Z,23.60
2023-04-05T07:20:06.828Z,22.95
2023-04-05T07:22:34.462Z,22.78
2023-04-05T07:25:02.464Z,22.65
2023-04-05T07:27:32.190Z,22.50
2023-04-05T07:29:59.091Z,21.26
2023-04-05T07:32:25.987Z,20.16
2023-04-05T07:34:53.017Z,19.37
2023-04-05T07:37:19.767Z,19.65
2023-04-05T07:39:46.493Z,18.73
2023-04-05T07:42:13.216Z,19.08
2023-04-05T07:44:39.998Z,18.01
2023-04-05T07:47:06.747Z,18.52
2023-04-05T07:49:33.717Z,18.58
2023-04-05T07:52:00.470Z,18.38
2023-04-05T07:54:27.245Z,16.89
2023-04-05T07:56:55.343Z,16.74
2023-04-05T07:59:22.262Z,15.65
2023-04-05T08:01:49.059Z,15.93
2023-04-05T08:04:15.798Z,15.37
2023-04-05T08:06:42.532Z,14.87
2023-04-05T08:09:10.848Z,14.45
2023-04-05T08:11:37.836Z,14.40
2023-04-05T08:14:04.604Z,14.09
2023-04-05T08:16:31.428Z,13.82
2023-04-05T08:18:58.228Z,12.78
2023-04-05T08:21:25.022Z,12.67
2023-04-05T08:23:51.932Z,12.98
2023-04-05T08:26:18.777Z,12.83
2023-04-05T08:28:45.499Z,13.33
2023-04-05T08:31:13.707Z,12.92
2023-04-05T08:33:40.879Z,12.88
2023-04-05T08:36:08.877Z,12.98
2023-04-05T08:38:35.775Z,12.52
2023-04-05T08:41:14.477Z,12.24
2023-04-05T08:44:02.961Z,11.71
2023-04-05T08:46:31.762Z,12.00
2023-04-05T08:48:58.882Z,13.08
2023-04-05T08:51:26.313Z,12.54
2023-04-05T08:53:53.635Z,11.80
2023-04-05T08:56:25.391Z,11.60
2023-04-05T08:59:08.475Z,12.42
2023-04-05T09:01:44.812Z,12.61
2023-04-05T09:04:23.313Z,11.25
2023-04-05T09:06:51.536Z,11.32
2023-04-05T09:09:22.527Z,12.02
2023-04-05T09:11:50.262Z,11.78
2023-04-05T09:14:17.945Z,12.34
2023-04-05T09:16:44.742Z,11.42
2023-04-05T09:19:11.625Z,11.06
2023-04-05T09:21:57.896Z,10.60
2023-04-05T09:24:35.514Z,11.11
2023-04-05T09:27:06.261Z,12.45
2023-04-05T09:29:33.091Z,11.71
2023-04-05T09:32:05.239Z,11.56
2023-04-05T09:34:37.439Z,9.90
2023-04-05T09:37:19.106Z,10.49
2023-04-05T09:39:47.205Z,10.69
2023-04-05T09:42:16.465Z,11.09
2023-04-05T09:44:54.218Z,11.11
2023-04-05T09:47:23.235Z,10.87
2023-04-05T09:49:54.340Z,11.15
2023-04-05T09:52:28.803Z,11.01
2023-04-05T09:54:57.378Z,10.57
2023-04-05T09:57:27.278Z,11.39
2023-04-05T09:59:54.457Z,10.25
2023-04-05T10:02:25.407Z,10.49
2023-04-05T10:04:52.402Z,10.79
2023-04-05T10:07:20.069Z,10.62
2023-04-05T10:09:48.408Z,10.55
2023-04-05T10:12:29.054Z,10.90
2023-04-05T10:14:57.072Z,10.95
2023-04-05T10:17:29.900Z,9.33
2023-04-05T10:20:17.929Z,10.06
2023-04-05T10:22:59.821Z,9.87
2023-04-05T10:25:53.078Z,10.77
2023-04-05T10:28:23.086Z,9.81
2023-04-05T10:30:55.751Z,9.91
2023-04-05T10:33:27.401Z,10.24
2023-04-05T10:36:22.709Z,9.98
2023-04-05T10:39:23.038Z,9.94
2023-04-05T10:41:54.359Z,8.99
2023-04-05T10:44:26.487Z,9.08
2023-04-05T10:46:55.830Z,9.41
2023-04-05T10:49:32.418Z,9.38
2023-04-05T10:51:59.593Z,9.90
2023-04-05T10:54:26.764Z,9.45
2023-04-05T10:56:54.992Z,9.70
2023-04-05T10:59:22.700Z,9.61
2023-04-05T11:01:50.781Z,8.87
2023-04-05T11:04:18.200Z,9.92
2023-04-05T11:06:48.087Z,9.60
2023-04-05T11:09:20.417Z,9.12
2023-04-05T11:11:48.276Z,9.55
2023-04-05T11:14:33.662Z,10.67
2023-04-05T11:17:00.603Z,9.61
2023-04-05T11:19:42.656Z,11.12
2023-04-05T11:22:10.362Z,10.91
2023-04-05T11:24:58.848Z,10.03
2023-04-05T11:27:29.131Z,10.36
2023-04-05T11:29:57.606Z,10.87
2023-04-05T11:32:37.783Z,11.17
2023-04-05T11:35:13.883Z,9.84
2023-04-05T11:38:06.158Z,9.91
2023-04-05T11:40:34.852Z,9.62
2023-04-05T11:43:08.500Z,9.75
2023-04-05T11:45:37.618Z,9.23
2023-04-05T11:48:13.466Z,9.24
2023-04-05T11:50:42.061Z,10.00
2023-04-05T11:53:17.221Z,10.79
2023-04-05T11:55:46.273Z,10.32
2023-04-05T11:58:21.599Z,10.17
2023-04-05T12:00:58.661Z,9.63
2023-04-05T12:03:28.862Z,9.14
2023-04-05T12:05:58.080Z,9.21
2023-04-05T12:08:38.577Z,10.15
2023-04-05T12:11:08.948Z,10.05
2023-04-05T12:13:36.584Z,10.29
2023-04-05T12:16:07.910Z,10.42
2023-04-05T12:18:36.873Z,10.95
2023-04-05T12:21:08.853Z,12.08
2023-04-05T12:23:37.314Z,12.37
2023-04-05T12:26:07.049Z,13.37
2023-04-05T12:28:58.466Z,13.72
2023-04-05T12:31:41.348Z,15.11
2023-04-05T12:34:09.114Z,14.96
2023-04-05T12:36:36.976Z,15.95
2023-04-05T12:39:07.517Z,15.72
2023-04-05T12:41:34.787Z,16.45
2023-04-05T12:44:27.825Z,16.69
2023-04-05T12:47:02.628Z,16.79
2023-04-05T12:49:35.350Z,17.11
2023-04-05T12:52:02.973Z,17.75
2023-04-05T12:54:32.044Z,19.21
2023-04-05T12:57:01.644Z,19.33
2023-04-05T12:59:28.507Z,19.10
2023-04-05T13:01:55.380Z,19.90
2023-04-05T13:04:23.124Z,19.89
2023-04-05T13:06:50.147Z,20.31
2023-04-05T13:09:17.186Z,19.15
2023-04-05T13:11:44.014Z,18.83
2023-04-05T13:14:10.700Z,19.85
2023-04-05T13:16:37.446Z,19.64
2023-04-05T13:19:04.234Z,20.20
2023-04-05T13:21:31.011Z,20.96
2023-04-05T13:23:58.023Z,20.52
2023-04-05T13:26:24.764Z,20.18
2023-04-05T13:28:51.509Z,20.54
2023-04-05T13:31:18.309Z,21.04
2023-04-05T13:33:45.247Z,20.26
2023-04-05T13:36:12.741Z,20.19
2023-04-05T13:38:39.901Z,21.01
2023-04-05T13:41:06.968Z,20.26
2023-04-05T13:43:34.003Z,20.38
2023-04-05T13:46:00.808Z,20.39
2023-04-05T13:48:27.592Z,20.94
2023-04-05T13:50:54.326Z,20.33
2023-04-05T13:53:21.024Z,20.73
2023-04-05T13:55:47.706Z,20.46
2023-04-05T13:58:14.598Z,21.33
2023-04-05T14:00:41.825Z,21.12
2023-04-05T14:03:08.999Z,21.39
2023-04-05T14:05:36.012Z,21.99
2023-04-05T14:08:02.870Z,20.91
2023-04-05T14:10:31.908Z,21.51
2023-04-05T14:12:58.681Z,21.18
2023-04-05T14:15:25.734Z,21.79
2023-04-05T14:17:52.601Z,22.05
2023-04-05T14:20:19.360Z,21.60
2023-04-05T14:22:46.214Z,21.95
2023-04-05T14:25:12.973Z,21.82
2023-04-05T14:27:42.433Z,23.34
2023-04-05T14:30:12.997Z,21.74
2023-04-05T14:32:40.156Z,22.03
2023-04-05T14:35:07.494Z,22.55
2023-04-05T14:37:34.264Z,22.00
2023-04-05T14:40:01.178Z,22.32
2023-04-05T14:42:41.045Z,21.68
2023-04-05T14:45:15.226Z,22.02
2023-04-05T14:47:42.077Z,21.89
2023-04-05T14:50:09.319Z,22.11
2023-04-05T14:52:36.216Z,21.35
2023-04-05T14:55:03.053Z,20.82
2023-04-05T14:57:29.821Z,21.90
2023-04-05T14:59:56.627Z,22.16
2023-04-05T15:02:23.436Z,22.02
2023-04-05T15:04:50.313Z,21.86
2023-04-05T15:07:17.030Z,21.99
2023-04-05T15:09:43.774Z,21.69
2023-04-05T15:12:10.539Z,22.87
2023-04-05T15:14:37.421Z,22.62
2023-04-05T15:17:04.373Z,22.25
2023-04-05T15:19:31.461Z,22.43
2023-04-05T15:21:58.315Z,22.65
2023-04-05T15:24:25.088Z,22.38
2023-04-05T15:26:52.041Z,22.39
2023-04-05T15:29:18.802Z,22.74
2023-04-05T15:31:45.863Z,23.09
2023-04-05T15:34:12.780Z,23.60
2023-04-05T15:36:39.673Z,23.60
2023-04-05T15:39:07.152Z,23.30
2023-04-05T15:41:34.691Z,23.18
2023-04-05T15:44:02.073Z,22.82
2023-04-05T15:46:29.700Z,22.46
2023-04-05T15:48:56.692Z,22.69
2023-04-05T15:51:23.421Z,22.80
2023-04-05T15:53:50.823Z,22.20
2023-04-05T15:56:18.181Z,22.59
2023-04-05T15:58:45.367Z,22.53
2023-04-05T16:01:12.454Z,22.99
2023-04-05T16:03:39.666Z,22.78
2023-04-05T16:06:06.777Z,22.79
2023-04-05T16:08:33.610Z,22.31
2023-04-05T16:11:00.607Z,23.01
2023-04-05T16:13:27.902Z,22.71
2023-04-05T16:15:54.694Z,22.10
2023-04-05T16:18:23.747Z,22.30
2023-04-05T16:20:50.574Z,22.38
2023-04-05T16:23:17.356Z,22.93
2023-04-05T16:25:44.216Z,23.43
2023-04-05T16:28:11.009Z,23.42
2023-04-05T16:30:37.894Z,23.53
2023-04-05T16:33:05.408Z,24.15
2023-04-05T16:35:32.296Z,23.60
2023-04-05T16:37:59.295Z,24.03
2023-04-05T16:40:26.446Z,24.06
2023-04-05T16:42:54.242Z,24.96
2023-04-05T16:45:21.501Z,24.73
2023-04-05T16:47:48.516Z,24.52
2023-04-05T16:50:15.455Z,25.04
2023-04-05T16:52:42.417Z,25.37
2023-04-05T16:55:09.758Z,25.61
2023-04-05T16:57:36.718Z,25.96
2023-04-05T17:00:05.438Z,25.89
2023-04-05T17:02:32.237Z,25.70
2023-04-05T17:04:59.059Z,25.27
2023-04-05T17:07:25.876Z,25.38
2023-04-05T17:09:52.628Z,25.97
2023-04-05T17:12:20.051Z,26.24
2023-04-05T17:14:46.831Z,25.55
2023-04-05T17:17:13.584Z,25.88
2023-04-05T17:19:40.412Z,25.57
2023-04-05T17:22:07.203Z,25.24
2023-04-05T17:24:36.086Z,25.73
2023-04-05T17:27:04.440Z,26.41
2023-04-05T17:29:31.247Z,25.94
2023-04-05T17:32:00.870Z,25.92
2023-04-05T17:34:27.667Z,26.34
2023-04-05T17:36:54.449Z,26.75
2023-04-05T17:39:21.476Z,27.26
2023-04-05T17:41:50.332Z,26.93
2023-04-05T17:44:17.154Z,27.11
2023-04-05T17:46:51.137Z,27.03
2023-04-05T17:49:24.379Z,27.28
2023-04-05T17:51:51.188Z,27.49
2023-04-05T17:54:18.076Z,27.81
2023-04-05T17:56:45.928Z,27.45
2023-04-05T17:59:12.780Z,27.53
2023-04-05T18:01:39.757Z,27.26
2023-04-05T18:04:12.405Z,27.22
2023-04-05T18:06:39.503Z,27.48
2023-04-05T18:09:08.617Z,27.63
2023-04-05T18:11:36.519Z,28.04
2023-04-05T18:14:03.652Z,28.23
2023-04-05T18:16:32.288Z,28.40
2023-04-05T18:18:59.163Z,27.99
2023-04-05T18:21:26.103Z,27.97
2023-04-05T18:23:52.913Z,27.72
2023-04-05T18:26:19.780Z,27.58
2023-04-05T18:28:46.645Z,27.73
2023-04-05T18:31:13.479Z,27.87
2023-04-05T18:33:40.858Z,27.65
2023-04-05T18:36:08.199Z,27.78
2023-04-05T18:38:35.362Z,28.19
2023-04-05T18:41:03.895Z,28.44
2023-04-05T18:43:31.138Z,28.45
2023-04-05T18:45:57.886Z,28.18
2023-04-05T18:48:25.457Z,27.77
2023-04-05T18:50:55.297Z,28.07
2023-04-05T18:53:22.316Z,28.97
2023-04-05T18:55:52.642Z,28.49
2023-04-05T18:58:20.350Z,29.18
2023-04-05T19:00:47.213Z,29.54
2023-04-05T19:03:16.221Z,29.47
2023-04-05T19:05:49.209Z,29.88
2023-04-05T19:08:16.620Z,29.34
2023-04-05T19:10:43.344Z,29.50
2023-04-05T19:13:10.249Z,29.56
2023-04-05T19:15:38.218Z,30.14
2023-04-05T19:18:05.551Z,30.84
2023-04-05T19:20:32.481Z,30.35
2023-04-05T19:22:59.294Z,32.08
2023-04-05T19:25:26.431Z,33.20
2023-04-05T19:27:54.851Z,33.70
2023-04-05T19:30:21.924Z,32.66
2023-04-05T19:32:49.252Z,32.23
2023-04-05T19:35:16.252Z,34.08
2023-04-05T19:37:43.105Z,32.21
2023-04-05T19:40:10.632Z,31.95
2023-04-05T19:42:37.491Z,32.65
2023-04-05T19:45:08.008Z,33.76
2023-04-05T19:47:35.894Z,33.89
2023-04-05T19:50:04.619Z,34.07
2023-04-05T19:52:47.220Z,34.14
2023-04-05T19:55:38.244Z,33.86
2023-04-05T19:58:10.076Z,33.47
2023-04-05T20:00:52.220Z,34.03
2023-04-05T20:03:30.313Z,34.32
2023-04-05T20:06:14.072Z,33.88
2023-04-05T20:08:46.844Z,33.99
2023-04-05T20:11:18.773Z,33.53
2023-04-05T20:13:51.155Z,34.18
2023-04-05T20:16:23.838Z,32.72
2023-04-05T20:18:50.795Z,33.56
2023-04-05T20:21:18.231Z,33.61
2023-04-05T20:23:45.440Z,34.05
2023-04-05T20:26:17.383Z,33.89
2023-04-05T20:28:54.857Z,34.03
2023-04-05T20:31:25.584Z,34.06
2023-04-05T20:33:58.776Z,34.15
2023-04-05T20:36:33.204Z,33.87
2023-04-05T20:39:02.307Z,33.45
2023-04-05T20:41:29.827Z,34.74
2023-04-05T20:43:56.690Z,34.35
2023-04-05T20:46:24.180Z,34.47
2023-04-05T20:48:53.389Z,35.03
2023-04-05T20:51:20.267Z,34.72
2023-04-05T20:53:47.017Z,35.54
2023-04-05T20:56:13.894Z,35.85
2023-04-05T20:58:40.979Z,36.02
2023-04-05T21:01:08.541Z,36.29
2023-04-05T21:03:37.871Z,37.85
2023-04-05T21:06:05.828Z,38.59
2023-04-05T21:08:32.875Z,39.01
2023-04-05T21:11:00.112Z,39.10
2023-04-05T21:13:27.095Z,37.17
2023-04-05T21:15:55.710Z,37.37
2023-04-05T21:18:25.601Z,37.53
2023-04-05T21:20:53.999Z,37.16
2023-04-05T21:23:28.790Z,36.88
2023-04-05T21:25:56.676Z,36.79
2023-04-05T21:28:24.982Z,35.53
2023-04-05T21:30:52.480Z,36.36
2023-04-05T21:33:20.093Z,36.36
2023-04-05T21:35:46.894Z,35.86
2023-04-05T21:38:15.651Z,35.22
2023-04-05T21:40:44.653Z,36.25
2023-04-05T21:43:13.244Z,36.68
2023-04-05T21:45:40.245Z,36.84
2023-04-05T21:48:07.188Z,37.12
2023-04-05T21:50:33.979Z,36.93
2023-04-05T21:53:00.781Z,37.38
2023-04-05T21:55:27.813Z,37.11
2023-04-05T21:57:54.592Z,37.11
2023-04-05T22:00:21.765Z,36.80
2023-04-05T22:02:48.701Z,37.74
2023-04-05T22:05:29.509Z,37.67
2023-04-05T22:08:03.666Z,37.94
2023-04-05T22:10:30.599Z,37.51
2023-04-05T22:12:57.510Z,37.93
2023-04-05T22:15:24.373Z,37.99
2023-04-05T22:17:51.309Z,38.42
2023-04-05T22:20:18.348Z,38.25
2023-04-05T22:22:45.361Z,38.18
2023-04-05T22:25:12.224Z,38.26
2023-04-05T22:27:39.511Z,38.60
2023-04-05T22:30:08.141Z,38.41
2023-04-05T22:32:35.721Z,38.64
2023-04-05T22:35:04.510Z,39.01
2023-04-05T22:37:35.745Z,39.06
2023-04-05T22:40:04.371Z,39.41
2023-04-05T22:42:31.536Z,39.96
2023-04-05T22:44:58.950Z,39.58
2023-04-05T22:47:26.024Z,39.70
2023-04-05T22:49:52.971Z,38.96
2023-04-05T22:52:19.793Z,39.04
2023-04-05T22:54:46.643Z,39.38
2023-04-05T22:57:13.509Z,40.14
2023-04-05T22:59:40.523Z,40.31
2023-04-05T23:02:07.458Z,39.71
2023-04-05T23:04:34.257Z,40.27
2023-04-05T23:07:01.057Z,41.48
2023-04-05T23:09:27.846Z,41.50
2023-04-05T23:11:54.586Z,40.06
2023-04-05T23:14:21.768Z,40.04
2023-04-05T23:16:48.624Z,40.60
2023-04-05T23:19:16.429Z,41.38
2023-04-05T23:21:43.171Z,40.72
2023-04-05T23:24:11.184Z,41.16
2023-04-05T23:26:38.177Z,41.46
2023-04-05T23:29:04.963Z,41.78
2023-04-05T23:31:31.749Z,41.68
2023-04-05T23:33:58.551Z,42.46
2023-04-05T23:36:25.979Z,42.65
2023-04-05T23:38:52.730Z,42.38
2023-04-05T23:41:19.524Z,41.98
2023-04-05T23:43:46.354Z,42.45
2023-04-05T23:46:13.399Z,43.55
2023-04-05T23:48:40.349Z,43.63
2023-04-05T23:51:07.185Z,43.01
2023-04-05T23:53:34.016Z,42.84
2023-04-05T23:56:01.011Z,43.57
2023-04-05T23:58:28.281Z,43.39
